Terminal Aerodrome Forecast
Issued by NWS

Home | Current Version | Previous Version | Text Only | Print | Product List | Glossary On
Versions: 1 2 3 4 5 6 7 8 9 10 11 12 13 14
000
FTUS43 KAPX 032320
TAFAPN
TAF
KAPN 032320Z 0400/0424 22009KT P6SM SCT120 WS020/21033KT
     FM040300 22007KT P6SM SCT060 BKN120 WS020/22035KT
     FM040600 23007KT 5SM -SHRA SCT040 OVC080 WS020/24040KT
     FM041600 30009KT P6SM VCSH SCT050 BKN100=

USA.gov is the U.S. government's official web portal to all federal, state and local government web resources and services.